sensor_id;sensor_type;location;lat;lon;timestamp;P1;durP1;ratioP1;P2;durP2;ratioP2
54555;SDS011;57291;37.520;15.106;2023-09-08T00:01:01;13.40;;;9.73;;
54555;SDS011;57291;37.520;15.106;2023-09-08T00:03:28;11.63;;;8.95;;
54555;SDS011;57291;37.520;15.106;2023-09-08T00:05:56;13.02;;;8.80;;
54555;SDS011;57291;37.520;15.106;2023-09-08T00:08:23;11.60;;;8.95;;
54555;SDS011;57291;37.520;15.106;2023-09-08T00:10:50;17.20;;;11.00;;
54555;SDS011;57291;37.520;15.106;2023-09-08T00:13:17;14.05;;;9.80;;
54555;SDS011;57291;37.520;15.106;2023-09-08T00:15:45;18.25;;;10.07;;
54555;SDS011;57291;37.520;15.106;2023-09-08T00:18:12;12.90;;;9.85;;
54555;SDS011;57291;37.520;15.106;2023-09-08T00:20:39;12.25;;;9.35;;
54555;SDS011;57291;37.520;15.106;2023-09-08T00:23:08;14.50;;;9.75;;
54555;SDS011;57291;37.520;15.106;2023-09-08T00:25:35;13.75;;;9.25;;
54555;SDS011;57291;37.520;15.106;2023-09-08T00:28:03;14.50;;;9.23;;
54555;SDS011;57291;37.520;15.106;2023-09-08T00:30:30;13.95;;;9.45;;
54555;SDS011;57291;37.520;15.106;2023-09-08T00:32:57;13.48;;;9.00;;
54555;SDS011;57291;37.520;15.106;2023-09-08T00:35:25;13.38;;;9.30;;
54555;SDS011;57291;37.520;15.106;2023-09-08T00:37:53;15.05;;;9.48;;
54555;SDS011;57291;37.520;15.106;2023-09-08T00:40:20;13.07;;;9.55;;
54555;SDS011;57291;37.520;15.106;2023-09-08T00:42:47;12.68;;;9.85;;
54555;SDS011;57291;37.520;15.106;2023-09-08T00:45:14;15.80;;;9.70;;
54555;SDS011;57291;37.520;15.106;2023-09-08T00:47:41;15.52;;;10.10;;
54555;SDS011;57291;37.520;15.106;2023-09-08T00:50:09;13.27;;;9.77;;
54555;SDS011;57291;37.520;15.106;2023-09-08T00:52:36;14.35;;;9.52;;
54555;SDS011;57291;37.520;15.106;2023-09-08T00:55:04;14.77;;;9.68;;
54555;SDS011;57291;37.520;15.106;2023-09-08T00:57:32;15.40;;;9.15;;
54555;SDS011;57291;37.520;15.106;2023-09-08T00:59:59;14.27;;;9.68;;
54555;SDS011;57291;37.520;15.106;2023-09-08T01:02:27;28.25;;;11.63;;
54555;SDS011;57291;37.520;15.106;2023-09-08T01:04:54;16.23;;;9.80;;
54555;SDS011;57291;37.520;15.106;2023-09-08T01:07:21;16.88;;;9.98;;
54555;SDS011;57291;37.520;15.106;2023-09-08T01:09:49;20.50;;;10.55;;
54555;SDS011;57291;37.520;15.106;2023-09-08T01:12:17;17.45;;;10.73;;
54555;SDS011;57291;37.520;15.106;2023-09-08T01:14:45;20.40;;;10.25;;
54555;SDS011;57291;37.520;15.106;2023-09-08T01:17:13;20.25;;;10.80;;
54555;SDS011;57291;37.520;15.106;2023-09-08T01:19:41;23.77;;;10.50;;
54555;SDS011;57291;37.520;15.106;2023-09-08T01:30:23;17.48;;;10.05;;
54555;SDS011;57291;37.520;15.106;2023-09-08T01:32:52;14.68;;;10.10;;
54555;SDS011;57291;37.520;15.106;2023-09-08T01:35:21;15.45;;;9.98;;
54555;SDS011;57291;37.520;15.106;2023-09-08T01:37:48;16.25;;;9.30;;
54555;SDS011;57291;37.520;15.106;2023-09-08T01:40:16;15.52;;;9.88;;
54555;SDS011;57291;37.520;15.106;2023-09-08T01:42:45;21.60;;;10.35;;
54555;SDS011;57291;37.520;15.106;2023-09-08T01:45:12;32.10;;;12.57;;
54555;SDS011;57291;37.520;15.106;2023-09-08T01:47:40;25.58;;;10.85;;
54555;SDS011;57291;37.520;15.106;2023-09-08T01:50:08;25.77;;;11.50;;
54555;SDS011;57291;37.520;15.106;2023-09-08T01:52:35;37.50;;;13.95;;
54555;SDS011;57291;37.520;15.106;2023-09-08T01:55:02;39.10;;;13.80;;
54555;SDS011;57291;37.520;15.106;2023-09-08T01:57:30;34.00;;;13.35;;
54555;SDS011;57291;37.520;15.106;2023-09-08T01:59:57;32.40;;;12.40;;
54555;SDS011;57291;37.520;15.106;2023-09-08T02:02:24;23.58;;;11.27;;
54555;SDS011;57291;37.520;15.106;2023-09-08T02:04:51;27.73;;;12.65;;
54555;SDS011;57291;37.520;15.106;2023-09-08T02:07:20;24.35;;;11.55;;
54555;SDS011;57291;37.520;15.106;2023-09-08T02:09:50;22.95;;;11.13;;
54555;SDS011;57291;37.520;15.106;2023-09-08T02:12:18;23.10;;;11.65;;
54555;SDS011;57291;37.520;15.106;2023-09-08T02:14:46;17.17;;;10.98;;
54555;SDS011;57291;37.520;15.106;2023-09-08T02:17:13;20.85;;;10.50;;
54555;SDS011;57291;37.520;15.106;2023-09-08T02:19:40;17.00;;;10.82;;
54555;SDS011;57291;37.520;15.106;2023-09-08T02:22:08;17.45;;;10.30;;
54555;SDS011;57291;37.520;15.106;2023-09-08T02:24:36;17.30;;;10.25;;
54555;SDS011;57291;37.520;15.106;2023-09-08T02:27:03;15.68;;;9.48;;
54555;SDS011;57291;37.520;15.106;2023-09-08T02:29:31;15.88;;;9.45;;
54555;SDS011;57291;37.520;15.106;2023-09-08T02:31:58;14.15;;;9.40;;
54555;SDS011;57291;37.520;15.106;2023-09-08T02:34:25;17.13;;;10.15;;
54555;SDS011;57291;37.520;15.106;2023-09-08T02:36:53;18.83;;;10.85;;
54555;SDS011;57291;37.520;15.106;2023-09-08T02:39:25;20.60;;;11.40;;
54555;SDS011;57291;37.520;15.106;2023-09-08T02:41:53;19.00;;;11.15;;
54555;SDS011;57291;37.520;15.106;2023-09-08T02:44:21;16.70;;;11.30;;
54555;SDS011;57291;37.520;15.106;2023-09-08T02:46:49;17.90;;;11.05;;
54555;SDS011;57291;37.520;15.106;2023-09-08T02:49:16;19.27;;;11.40;;
54555;SDS011;57291;37.520;15.106;2023-09-08T02:51:43;14.23;;;9.90;;
54555;SDS011;57291;37.520;15.106;2023-09-08T02:54:10;20.85;;;12.18;;
54555;SDS011;57291;37.520;15.106;2023-09-08T02:56:37;17.30;;;11.82;;
54555;SDS011;57291;37.520;15.106;2023-09-08T02:59:04;17.48;;;11.52;;
54555;SDS011;57291;37.520;15.106;2023-09-08T03:01:31;17.35;;;11.48;;
54555;SDS011;57291;37.520;15.106;2023-09-08T03:03:59;16.70;;;11.15;;
54555;SDS011;57291;37.520;15.106;2023-09-08T03:06:27;15.77;;;12.07;;
54555;SDS011;57291;37.520;15.106;2023-09-08T03:08:54;18.27;;;11.45;;
54555;SDS011;57291;37.520;15.106;2023-09-08T03:11:22;15.20;;;11.25;;
54555;SDS011;57291;37.520;15.106;2023-09-08T03:13:49;17.08;;;11.05;;
54555;SDS011;57291;37.520;15.106;2023-09-08T03:16:17;16.00;;;11.25;;
54555;SDS011;57291;37.520;15.106;2023-09-08T03:18:44;15.77;;;10.50;;
54555;SDS011;57291;37.520;15.106;2023-09-08T03:21:13;15.07;;;10.68;;
54555;SDS011;57291;37.520;15.106;2023-09-08T03:23:41;13.95;;;10.23;;
54555;SDS011;57291;37.520;15.106;2023-09-08T03:26:10;11.93;;;9.30;;
54555;SDS011;57291;37.520;15.106;2023-09-08T03:28:39;13.48;;;8.70;;
54555;SDS011;57291;37.520;15.106;2023-09-08T03:31:06;9.65;;;7.43;;
54555;SDS011;57291;37.520;15.106;2023-09-08T03:33:34;10.73;;;7.43;;
54555;SDS011;57291;37.520;15.106;2023-09-08T03:36:04;10.48;;;6.57;;
54555;SDS011;57291;37.520;15.106;2023-09-08T03:38:31;10.38;;;6.70;;
54555;SDS011;57291;37.520;15.106;2023-09-08T03:40:59;12.15;;;6.28;;
54555;SDS011;57291;37.520;15.106;2023-09-08T03:43:26;13.55;;;6.38;;
54555;SDS011;57291;37.520;15.106;2023-09-08T03:45:54;10.00;;;5.43;;
54555;SDS011;57291;37.520;15.106;2023-09-08T03:48:21;8.57;;;5.78;;
54555;SDS011;57291;37.520;15.106;2023-09-08T03:50:48;8.13;;;5.38;;
54555;SDS011;57291;37.520;15.106;2023-09-08T03:53:16;10.32;;;4.93;;
54555;SDS011;57291;37.520;15.106;2023-09-08T03:55:44;11.43;;;6.80;;
54555;SDS011;57291;37.520;15.106;2023-09-08T03:58:13;13.18;;;6.28;;
54555;SDS011;57291;37.520;15.106;2023-09-08T04:00:40;9.80;;;7.13;;
54555;SDS011;57291;37.520;15.106;2023-09-08T04:03:08;10.93;;;6.57;;
54555;SDS011;57291;37.520;15.106;2023-09-08T04:05:35;13.23;;;6.82;;
54555;SDS011;57291;37.520;15.106;2023-09-08T04:08:02;14.63;;;8.93;;
54555;SDS011;57291;37.520;15.106;2023-09-08T04:10:30;14.27;;;8.80;;
54555;SDS011;57291;37.520;15.106;2023-09-08T04:12:57;17.92;;;10.57;;
54555;SDS011;57291;37.520;15.106;2023-09-08T04:15:24;13.57;;;8.43;;
54555;SDS011;57291;37.520;15.106;2023-09-08T04:17:51;13.43;;;7.82;;
54555;SDS011;57291;37.520;15.106;2023-09-08T04:20:19;12.00;;;7.28;;
54555;SDS011;57291;37.520;15.106;2023-09-08T04:22:46;16.48;;;7.63;;
54555;SDS011;57291;37.520;15.106;2023-09-08T04:25:14;12.07;;;7.57;;
54555;SDS011;57291;37.520;15.106;2023-09-08T04:27:41;11.13;;;7.40;;
54555;SDS011;57291;37.520;15.106;2023-09-08T04:30:09;11.27;;;6.63;;
54555;SDS011;57291;37.520;15.106;2023-09-08T04:32:36;13.13;;;8.27;;
54555;SDS011;57291;37.520;15.106;2023-09-08T04:35:05;14.63;;;8.52;;
54555;SDS011;57291;37.520;15.106;2023-09-08T04:37:34;11.63;;;7.90;;
54555;SDS011;57291;37.520;15.106;2023-09-08T04:40:01;11.40;;;6.93;;
54555;SDS011;57291;37.520;15.106;2023-09-08T04:42:29;13.48;;;8.27;;
54555;SDS011;57291;37.520;15.106;2023-09-08T04:44:59;13.20;;;6.85;;
54555;SDS011;57291;37.520;15.106;2023-09-08T04:47:27;12.73;;;6.90;;
54555;SDS011;57291;37.520;15.106;2023-09-08T04:49:55;11.40;;;6.28;;
54555;SDS011;57291;37.520;15.106;2023-09-08T04:52:23;11.93;;;6.53;;
54555;SDS011;57291;37.520;15.106;2023-09-08T04:54:51;10.90;;;6.07;;
54555;SDS011;57291;37.520;15.106;2023-09-08T04:57:18;10.30;;;5.95;;
54555;SDS011;57291;37.520;15.106;2023-09-08T04:59:53;13.63;;;6.78;;
54555;SDS011;57291;37.520;15.106;2023-09-08T05:02:21;11.73;;;6.47;;
54555;SDS011;57291;37.520;15.106;2023-09-08T05:04:49;15.25;;;7.30;;
54555;SDS011;57291;37.520;15.106;2023-09-08T05:07:16;11.95;;;6.80;;
54555;SDS011;57291;37.520;15.106;2023-09-08T05:09:46;13.23;;;8.73;;
54555;SDS011;57291;37.520;15.106;2023-09-08T05:12:13;10.20;;;6.57;;
54555;SDS011;57291;37.520;15.106;2023-09-08T05:14:41;9.20;;;6.80;;
54555;SDS011;57291;37.520;15.106;2023-09-08T05:17:08;15.70;;;7.45;;
54555;SDS011;57291;37.520;15.106;2023-09-08T05:19:35;10.55;;;7.00;;
54555;SDS011;57291;37.520;15.106;2023-09-08T05:22:04;14.48;;;7.53;;
54555;SDS011;57291;37.520;15.106;2023-09-08T05:24:33;14.07;;;7.05;;
54555;SDS011;57291;37.520;15.106;2023-09-08T05:27:00;19.08;;;8.73;;
54555;SDS011;57291;37.520;15.106;2023-09-08T05:29:27;13.38;;;8.95;;
54555;SDS011;57291;37.520;15.106;2023-09-08T05:31:54;14.68;;;8.85;;
54555;SDS011;57291;37.520;15.106;2023-09-08T05:34:22;15.32;;;9.35;;
54555;SDS011;57291;37.520;15.106;2023-09-08T05:36:50;23.60;;;13.50;;
54555;SDS011;57291;37.520;15.106;2023-09-08T05:39:17;17.58;;;10.43;;
54555;SDS011;57291;37.520;15.106;2023-09-08T05:41:46;16.27;;;9.30;;
54555;SDS011;57291;37.520;15.106;2023-09-08T05:44:13;16.67;;;9.50;;
54555;SDS011;57291;37.520;15.106;2023-09-08T05:46:40;13.13;;;9.27;;
54555;SDS011;57291;37.520;15.106;2023-09-08T05:49:08;17.73;;;9.23;;
54555;SDS011;57291;37.520;15.106;2023-09-08T05:51:36;19.23;;;10.10;;
54555;SDS011;57291;37.520;15.106;2023-09-08T05:54:04;19.60;;;9.73;;
54555;SDS011;57291;37.520;15.106;2023-09-08T05:56:31;19.95;;;9.20;;
54555;SDS011;57291;37.520;15.106;2023-09-08T05:59:00;15.25;;;8.10;;
54555;SDS011;57291;37.520;15.106;2023-09-08T06:01:30;13.88;;;8.05;;
54555;SDS011;57291;37.520;15.106;2023-09-08T06:04:01;11.60;;;7.32;;
54555;SDS011;57291;37.520;15.106;2023-09-08T06:06:29;13.68;;;6.90;;
54555;SDS011;57291;37.520;15.106;2023-09-08T06:08:58;13.05;;;6.63;;
54555;SDS011;57291;37.520;15.106;2023-09-08T06:11:28;15.98;;;7.20;;
54555;SDS011;57291;37.520;15.106;2023-09-08T06:13:56;12.65;;;6.97;;
54555;SDS011;57291;37.520;15.106;2023-09-08T06:16:31;16.42;;;7.07;;
54555;SDS011;57291;37.520;15.106;2023-09-08T06:18:58;13.15;;;7.35;;
54555;SDS011;57291;37.520;15.106;2023-09-08T06:21:25;12.70;;;6.40;;
54555;SDS011;57291;37.520;15.106;2023-09-08T06:23:52;19.60;;;7.07;;
54555;SDS011;57291;37.520;15.106;2023-09-08T06:26:20;18.42;;;7.43;;
54555;SDS011;57291;37.520;15.106;2023-09-08T06:28:47;11.43;;;7.03;;
54555;SDS011;57291;37.520;15.106;2023-09-08T06:31:14;15.75;;;7.57;;
54555;SDS011;57291;37.520;15.106;2023-09-08T06:33:43;15.93;;;8.10;;
54555;SDS011;57291;37.520;15.106;2023-09-08T06:36:11;13.77;;;7.93;;
54555;SDS011;57291;37.520;15.106;2023-09-08T06:38:39;15.07;;;7.95;;
54555;SDS011;57291;37.520;15.106;2023-09-08T06:41:09;19.55;;;7.70;;
54555;SDS011;57291;37.520;15.106;2023-09-08T06:43:38;54.20;;;15.98;;
54555;SDS011;57291;37.520;15.106;2023-09-08T06:46:13;43.22;;;15.30;;
54555;SDS011;57291;37.520;15.106;2023-09-08T06:48:41;56.70;;;16.33;;
54555;SDS011;57291;37.520;15.106;2023-09-08T06:51:08;51.83;;;15.85;;
54555;SDS011;57291;37.520;15.106;2023-09-08T06:53:37;49.65;;;14.50;;
54555;SDS011;57291;37.520;15.106;2023-09-08T06:56:05;35.42;;;13.48;;
54555;SDS011;57291;37.520;15.106;2023-09-08T06:58:33;42.15;;;13.00;;
54555;SDS011;57291;37.520;15.106;2023-09-08T07:01:01;35.40;;;11.63;;
54555;SDS011;57291;37.520;15.106;2023-09-08T07:03:29;27.20;;;11.25;;
54555;SDS011;57291;37.520;15.106;2023-09-08T07:06:06;55.53;;;18.13;;
54555;SDS011;57291;37.520;15.106;2023-09-08T07:08:33;59.20;;;16.95;;
54555;SDS011;57291;37.520;15.106;2023-09-08T07:11:01;49.75;;;15.15;;
54555;SDS011;57291;37.520;15.106;2023-09-08T07:13:28;32.47;;;12.52;;
54555;SDS011;57291;37.520;15.106;2023-09-08T07:15:56;22.30;;;11.10;;
54555;SDS011;57291;37.520;15.106;2023-09-08T07:18:24;26.25;;;12.02;;
54555;SDS011;57291;37.520;15.106;2023-09-08T07:20:52;62.58;;;19.38;;
54555;SDS011;57291;37.520;15.106;2023-09-08T07:23:20;67.90;;;19.92;;
54555;SDS011;57291;37.520;15.106;2023-09-08T07:25:48;58.35;;;17.67;;
54555;SDS011;57291;37.520;15.106;2023-09-08T07:28:17;71.53;;;16.92;;
54555;SDS011;57291;37.520;15.106;2023-09-08T07:30:47;51.25;;;17.25;;
54555;SDS011;57291;37.520;15.106;2023-09-08T07:33:16;45.00;;;16.50;;
54555;SDS011;57291;37.520;15.106;2023-09-08T07:35:43;67.57;;;20.05;;
54555;SDS011;57291;37.520;15.106;2023-09-08T07:38:11;57.95;;;18.05;;
54555;SDS011;57291;37.520;15.106;2023-09-08T07:40:38;138.85;;;32.90;;
54555;SDS011;57291;37.520;15.106;2023-09-08T07:43:05;45.13;;;16.85;;
54555;SDS011;57291;37.520;15.106;2023-09-08T07:45:32;37.67;;;14.82;;
54555;SDS011;57291;37.520;15.106;2023-09-08T07:48:00;42.05;;;16.17;;
54555;SDS011;57291;37.520;15.106;2023-09-08T07:50:28;18.27;;;10.90;;
54555;SDS011;57291;37.520;15.106;2023-09-08T07:52:56;28.38;;;12.05;;
54555;SDS011;57291;37.520;15.106;2023-09-08T07:55:23;23.50;;;12.30;;
54555;SDS011;57291;37.520;15.106;2023-09-08T07:57:54;25.85;;;12.70;;
54555;SDS011;57291;37.520;15.106;2023-09-08T08:00:22;33.17;;;14.65;;
54555;SDS011;57291;37.520;15.106;2023-09-08T08:02:50;31.52;;;14.48;;
54555;SDS011;57291;37.520;15.106;2023-09-08T08:05:18;43.53;;;16.95;;
54555;SDS011;57291;37.520;15.106;2023-09-08T08:07:45;39.38;;;14.20;;
54555;SDS011;57291;37.520;15.106;2023-09-08T08:10:13;39.47;;;14.98;;
54555;SDS011;57291;37.520;15.106;2023-09-08T08:12:40;34.38;;;13.30;;
54555;SDS011;57291;37.520;15.106;2023-09-08T08:15:09;24.55;;;11.90;;
54555;SDS011;57291;37.520;15.106;2023-09-08T08:17:37;33.75;;;13.43;;
54555;SDS011;57291;37.520;15.106;2023-09-08T08:20:06;31.85;;;13.65;;
54555;SDS011;57291;37.520;15.106;2023-09-08T08:22:36;35.67;;;12.23;;
54555;SDS011;57291;37.520;15.106;2023-09-08T08:25:04;30.30;;;13.20;;
54555;SDS011;57291;37.520;15.106;2023-09-08T08:27:31;24.40;;;10.70;;
54555;SDS011;57291;37.520;15.106;2023-09-08T08:29:59;26.00;;;10.57;;
54555;SDS011;57291;37.520;15.106;2023-09-08T08:32:28;34.78;;;11.77;;
54555;SDS011;57291;37.520;15.106;2023-09-08T08:34:55;41.75;;;12.70;;
54555;SDS011;57291;37.520;15.106;2023-09-08T08:37:23;33.72;;;11.82;;
54555;SDS011;57291;37.520;15.106;2023-09-08T08:39:50;33.08;;;12.38;;
54555;SDS011;57291;37.520;15.106;2023-09-08T08:42:18;29.65;;;11.10;;
54555;SDS011;57291;37.520;15.106;2023-09-08T08:44:49;30.25;;;11.98;;
54555;SDS011;57291;37.520;15.106;2023-09-08T08:47:17;24.70;;;11.05;;
54555;SDS011;57291;37.520;15.106;2023-09-08T08:49:46;30.60;;;9.90;;
54555;SDS011;57291;37.520;15.106;2023-09-08T08:52:15;25.98;;;9.05;;
54555;SDS011;57291;37.520;15.106;2023-09-08T08:54:44;25.85;;;8.88;;
54555;SDS011;57291;37.520;15.106;2023-09-08T08:57:12;31.10;;;10.10;;
54555;SDS011;57291;37.520;15.106;2023-09-08T08:59:40;34.35;;;10.55;;
54555;SDS011;57291;37.520;15.106;2023-09-08T09:02:12;35.30;;;9.38;;
54555;SDS011;57291;37.520;15.106;2023-09-08T09:04:41;26.58;;;9.30;;
54555;SDS011;57291;37.520;15.106;2023-09-08T09:07:08;29.55;;;9.70;;
54555;SDS011;57291;37.520;15.106;2023-09-08T09:09:35;50.53;;;13.68;;
54555;SDS011;57291;37.520;15.106;2023-09-08T09:12:02;35.85;;;11.25;;
54555;SDS011;57291;37.520;15.106;2023-09-08T09:14:33;31.10;;;9.75;;
54555;SDS011;57291;37.520;15.106;2023-09-08T09:17:01;25.33;;;9.38;;
54555;SDS011;57291;37.520;15.106;2023-09-08T09:19:31;13.77;;;7.57;;
54555;SDS011;57291;37.520;15.106;2023-09-08T09:21:58;18.10;;;6.60;;
54555;SDS011;57291;37.520;15.106;2023-09-08T09:24:36;18.15;;;6.40;;
54555;SDS011;57291;37.520;15.106;2023-09-08T09:27:08;20.10;;;6.63;;
54555;SDS011;57291;37.520;15.106;2023-09-08T09:29:45;19.50;;;6.22;;
54555;SDS011;57291;37.520;15.106;2023-09-08T09:32:13;20.75;;;6.47;;
54555;SDS011;57291;37.520;15.106;2023-09-08T09:34:48;20.23;;;6.57;;
54555;SDS011;57291;37.520;15.106;2023-09-08T09:37:17;11.85;;;6.63;;
54555;SDS011;57291;37.520;15.106;2023-09-08T09:39:53;18.02;;;7.43;;
54555;SDS011;57291;37.520;15.106;2023-09-08T09:42:21;26.23;;;8.85;;
54555;SDS011;57291;37.520;15.106;2023-09-08T09:44:55;23.55;;;8.70;;
54555;SDS011;57291;37.520;15.106;2023-09-08T09:47:22;26.90;;;8.90;;
54555;SDS011;57291;37.520;15.106;2023-09-08T09:49:50;23.38;;;9.45;;
54555;SDS011;57291;37.520;15.106;2023-09-08T09:52:21;22.40;;;9.05;;
54555;SDS011;57291;37.520;15.106;2023-09-08T09:54:53;20.48;;;8.82;;
54555;SDS011;57291;37.520;15.106;2023-09-08T09:57:22;25.88;;;10.27;;
54555;SDS011;57291;37.520;15.106;2023-09-08T09:59:50;26.75;;;9.38;;
54555;SDS011;57291;37.520;15.106;2023-09-08T10:02:20;21.17;;;8.95;;
54555;SDS011;57291;37.520;15.106;2023-09-08T10:04:49;16.77;;;8.38;;
54555;SDS011;57291;37.520;15.106;2023-09-08T10:07:18;14.15;;;7.88;;
54555;SDS011;57291;37.520;15.106;2023-09-08T10:09:46;10.43;;;7.47;;
54555;SDS011;57291;37.520;15.106;2023-09-08T10:12:14;17.33;;;8.13;;
54555;SDS011;57291;37.520;15.106;2023-09-08T10:14:42;13.30;;;7.93;;
54555;SDS011;57291;37.520;15.106;2023-09-08T10:17:15;19.15;;;8.18;;
54555;SDS011;57291;37.520;15.106;2023-09-08T10:19:47;13.95;;;8.00;;
54555;SDS011;57291;37.520;15.106;2023-09-08T10:22:23;17.60;;;8.75;;
54555;SDS011;57291;37.520;15.106;2023-09-08T10:24:57;24.48;;;8.98;;
54555;SDS011;57291;37.520;15.106;2023-09-08T10:27:30;17.60;;;8.50;;
54555;SDS011;57291;37.520;15.106;2023-09-08T10:30:02;29.98;;;9.75;;
54555;SDS011;57291;37.520;15.106;2023-09-08T10:32:32;27.42;;;9.50;;
54555;SDS011;57291;37.520;15.106;2023-09-08T10:35:02;28.83;;;8.95;;
54555;SDS011;57291;37.520;15.106;2023-09-08T10:37:32;20.90;;;8.65;;
54555;SDS011;57291;37.520;15.106;2023-09-08T10:43:15;24.27;;;9.52;;
54555;SDS011;57291;37.520;15.106;2023-09-08T10:45:41;27.55;;;9.18;;
54555;SDS011;57291;37.520;15.106;2023-09-08T10:48:08;18.33;;;9.20;;
54555;SDS011;57291;37.520;15.106;2023-09-08T10:50:38;16.42;;;8.30;;
54555;SDS011;57291;37.520;15.106;2023-09-08T10:53:17;14.05;;;6.68;;
54555;SDS011;57291;37.520;15.106;2023-09-08T10:55:46;16.58;;;6.72;;
54555;SDS011;57291;37.520;15.106;2023-09-08T10:58:35;11.18;;;6.25;;
54555;SDS011;57291;37.520;15.106;2023-09-08T11:01:05;12.82;;;6.85;;
54555;SDS011;57291;37.520;15.106;2023-09-08T11:06:06;18.92;;;7.25;;
54555;SDS011;57291;37.520;15.106;2023-09-08T11:08:34;20.73;;;6.82;;
54555;SDS011;57291;37.520;15.106;2023-09-08T11:11:04;23.42;;;7.78;;
54555;SDS011;57291;37.520;15.106;2023-09-08T11:13:32;19.92;;;7.72;;
54555;SDS011;57291;37.520;15.106;2023-09-08T11:16:00;23.40;;;7.35;;
54555;SDS011;57291;37.520;15.106;2023-09-08T11:18:30;28.08;;;8.27;;
54555;SDS011;57291;37.520;15.106;2023-09-08T11:20:57;27.38;;;8.23;;
54555;SDS011;57291;37.520;15.106;2023-09-08T11:23:25;28.65;;;8.75;;
54555;SDS011;57291;37.520;15.106;2023-09-08T11:25:52;27.15;;;7.93;;
54555;SDS011;57291;37.520;15.106;2023-09-08T11:28:23;23.83;;;8.30;;
54555;SDS011;57291;37.520;15.106;2023-09-08T11:30:51;25.00;;;8.45;;
54555;SDS011;57291;37.520;15.106;2023-09-08T11:33:19;25.90;;;9.60;;
54555;SDS011;57291;37.520;15.106;2023-09-08T11:35:54;21.90;;;8.15;;
54555;SDS011;57291;37.520;15.106;2023-09-08T11:38:25;21.23;;;7.70;;
54555;SDS011;57291;37.520;15.106;2023-09-08T11:40:53;19.38;;;7.45;;
54555;SDS011;57291;37.520;15.106;2023-09-08T11:43:24;20.13;;;7.65;;
54555;SDS011;57291;37.520;15.106;2023-09-08T11:45:52;16.27;;;7.13;;
54555;SDS011;57291;37.520;15.106;2023-09-08T11:48:20;18.45;;;7.13;;
54555;SDS011;57291;37.520;15.106;2023-09-08T11:50:47;59.80;;;14.07;;
54555;SDS011;57291;37.520;15.106;2023-09-08T11:53:18;57.17;;;14.25;;
54555;SDS011;57291;37.520;15.106;2023-09-08T11:55:47;26.95;;;9.07;;
54555;SDS011;57291;37.520;15.106;2023-09-08T11:58:16;27.50;;;9.25;;
54555;SDS011;57291;37.520;15.106;2023-09-08T12:00:46;25.30;;;8.23;;
54555;SDS011;57291;37.520;15.106;2023-09-08T12:03:16;11.63;;;6.35;;
54555;SDS011;57291;37.520;15.106;2023-09-08T12:05:44;10.98;;;5.93;;
54555;SDS011;57291;37.520;15.106;2023-09-08T12:08:18;12.30;;;6.45;;
54555;SDS011;57291;37.520;15.106;2023-09-08T12:10:45;15.82;;;7.20;;
54555;SDS011;57291;37.520;15.106;2023-09-08T12:13:12;16.00;;;7.25;;
54555;SDS011;57291;37.520;15.106;2023-09-08T12:15:41;12.38;;;6.97;;
54555;SDS011;57291;37.520;15.106;2023-09-08T12:18:11;11.65;;;6.78;;
54555;SDS011;57291;37.520;15.106;2023-09-08T12:20:42;14.55;;;7.43;;
54555;SDS011;57291;37.520;15.106;2023-09-08T12:25:49;14.25;;;6.95;;
54555;SDS011;57291;37.520;15.106;2023-09-08T12:28:19;14.75;;;7.45;;
54555;SDS011;57291;37.520;15.106;2023-09-08T12:30:51;11.82;;;7.50;;
54555;SDS011;57291;37.520;15.106;2023-09-08T12:33:20;16.05;;;7.97;;
54555;SDS011;57291;37.520;15.106;2023-09-08T12:35:48;15.40;;;7.70;;
54555;SDS011;57291;37.520;15.106;2023-09-08T12:38:18;15.75;;;8.20;;
54555;SDS011;57291;37.520;15.106;2023-09-08T12:40:45;20.73;;;9.88;;
54555;SDS011;57291;37.520;15.106;2023-09-08T12:43:12;15.52;;;8.77;;
54555;SDS011;57291;37.520;15.106;2023-09-08T12:45:54;16.65;;;9.05;;
54555;SDS011;57291;37.520;15.106;2023-09-08T12:48:23;17.77;;;10.23;;
54555;SDS011;57291;37.520;15.106;2023-09-08T12:50:50;24.27;;;10.93;;
54555;SDS011;57291;37.520;15.106;2023-09-08T12:53:17;14.35;;;9.25;;
54555;SDS011;57291;37.520;15.106;2023-09-08T12:55:45;17.35;;;9.07;;
54555;SDS011;57291;37.520;15.106;2023-09-08T12:58:13;14.55;;;9.38;;
54555;SDS011;57291;37.520;15.106;2023-09-08T13:00:40;15.27;;;9.30;;
54555;SDS011;57291;37.520;15.106;2023-09-08T13:03:08;20.65;;;9.82;;
54555;SDS011;57291;37.520;15.106;2023-09-08T13:05:36;23.88;;;11.40;;
54555;SDS011;57291;37.520;15.106;2023-09-08T13:08:06;20.42;;;10.88;;
54555;SDS011;57291;37.520;15.106;2023-09-08T13:10:33;26.85;;;10.55;;
54555;SDS011;57291;37.520;15.106;2023-09-08T13:13:00;19.33;;;9.88;;
54555;SDS011;57291;37.520;15.106;2023-09-08T13:15:28;20.63;;;9.20;;
54555;SDS011;57291;37.520;15.106;2023-09-08T13:17:55;20.92;;;9.75;;
54555;SDS011;57291;37.520;15.106;2023-09-08T13:20:23;24.02;;;9.35;;
54555;SDS011;57291;37.520;15.106;2023-09-08T13:22:50;33.95;;;12.60;;
54555;SDS011;57291;37.520;15.106;2023-09-08T13:25:17;24.30;;;11.90;;
54555;SDS011;57291;37.520;15.106;2023-09-08T13:27:45;48.75;;;15.23;;
54555;SDS011;57291;37.520;15.106;2023-09-08T13:30:15;30.98;;;11.68;;
54555;SDS011;57291;37.520;15.106;2023-09-08T13:32:43;19.42;;;8.70;;
54555;SDS011;57291;37.520;15.106;2023-09-08T13:35:11;23.42;;;9.13;;
54555;SDS011;57291;37.520;15.106;2023-09-08T13:37:38;26.55;;;10.63;;
54555;SDS011;57291;37.520;15.106;2023-09-08T13:40:06;21.58;;;10.02;;
54555;SDS011;57291;37.520;15.106;2023-09-08T13:42:35;20.35;;;9.73;;
54555;SDS011;57291;37.520;15.106;2023-09-08T13:45:02;18.67;;;9.25;;
54555;SDS011;57291;37.520;15.106;2023-09-08T13:47:30;21.52;;;9.65;;
54555;SDS011;57291;37.520;15.106;2023-09-08T13:49:59;22.83;;;10.13;;
54555;SDS011;57291;37.520;15.106;2023-09-08T13:52:30;20.80;;;9.23;;
54555;SDS011;57291;37.520;15.106;2023-09-08T13:55:01;21.35;;;9.75;;
54555;SDS011;57291;37.520;15.106;2023-09-08T13:57:32;19.13;;;9.73;;
54555;SDS011;57291;37.520;15.106;2023-09-08T14:00:00;14.27;;;9.25;;
54555;SDS011;57291;37.520;15.106;2023-09-08T14:02:35;22.50;;;9.75;;
54555;SDS011;57291;37.520;15.106;2023-09-08T14:05:09;17.05;;;9.15;;
54555;SDS011;57291;37.520;15.106;2023-09-08T14:07:42;22.90;;;9.52;;
54555;SDS011;57291;37.520;15.106;2023-09-08T14:10:13;29.98;;;10.85;;
54555;SDS011;57291;37.520;15.106;2023-09-08T14:12:55;15.87;;;9.17;;
54555;SDS011;57291;37.520;15.106;2023-09-08T14:15:22;22.85;;;10.68;;
54555;SDS011;57291;37.520;15.106;2023-09-08T14:17:50;17.75;;;8.68;;
54555;SDS011;57291;37.520;15.106;2023-09-08T14:20:17;18.92;;;9.05;;
54555;SDS011;57291;37.520;15.106;2023-09-08T14:22:44;17.98;;;9.40;;
54555;SDS011;57291;37.520;15.106;2023-09-08T14:25:11;18.15;;;8.80;;
54555;SDS011;57291;37.520;15.106;2023-09-08T14:27:39;16.08;;;8.45;;
54555;SDS011;57291;37.520;15.106;2023-09-08T14:30:06;15.98;;;8.88;;
54555;SDS011;57291;37.520;15.106;2023-09-08T14:32:34;18.27;;;7.85;;
54555;SDS011;57291;37.520;15.106;2023-09-08T14:35:01;13.07;;;8.05;;
54555;SDS011;57291;37.520;15.106;2023-09-08T14:37:29;15.38;;;8.27;;
54555;SDS011;57291;37.520;15.106;2023-09-08T14:39:56;21.33;;;9.20;;